Terminal Aerodrome Forecast
Issued by NWS Pittsburgh, PA

Current Version | Previous Version | Text Only | Print | Product List | Glossary Off
Versions: 1 2 3 4 5 6 7 8 9 10 11 12 13 14 15 16 17 18 19 20 21 22 23 24

000
FTUS41 KPBZ 270856 AAA
TAFPIT
TAF AMD
KPIT 270856Z 2709/2812 VRB03KT P6SM BKN050
      TEMPO 2711/2713 3SM BR BKN025
     FM271700 33004KT P6SM BKN035
     FM280200 VRB03KT P6SM SCT035
     FM280800 VRB03KT 3SM BR SKC=

USA.gov is the U.S. government's official web portal to all federal, state and local government web resources and services.